sensor_id;sensor_type;location;lat;lon;timestamp;P1;durP1;ratioP1;P2;durP2;ratioP2
36385;SDS011;24125;47.482;8.770;2022-11-27T00:02:18;12.30;;;4.55;;
36385;SDS011;24125;47.482;8.770;2022-11-27T00:04:51;8.93;;;4.15;;
36385;SDS011;24125;47.482;8.770;2022-11-27T00:07:24;6.53;;;4.07;;
36385;SDS011;24125;47.482;8.770;2022-11-27T00:09:58;8.65;;;4.20;;
36385;SDS011;24125;47.482;8.770;2022-11-27T00:12:31;6.72;;;4.05;;
36385;SDS011;24125;47.482;8.770;2022-11-27T00:15:04;6.82;;;3.63;;
36385;SDS011;24125;47.482;8.770;2022-11-27T00:17:38;6.05;;;4.05;;
36385;SDS011;24125;47.482;8.770;2022-11-27T00:20:11;6.65;;;3.88;;
36385;SDS011;24125;47.482;8.770;2022-11-27T00:22:44;7.70;;;4.30;;
36385;SDS011;24125;47.482;8.770;2022-11-27T00:25:19;6.68;;;3.92;;
36385;SDS011;24125;47.482;8.770;2022-11-27T00:27:52;7.90;;;4.03;;
36385;SDS011;24125;47.482;8.770;2022-11-27T00:30:25;6.90;;;4.13;;
36385;SDS011;24125;47.482;8.770;2022-11-27T00:32:58;9.52;;;3.78;;
36385;SDS011;24125;47.482;8.770;2022-11-27T00:35:31;7.63;;;4.38;;
36385;SDS011;24125;47.482;8.770;2022-11-27T00:38:03;8.93;;;4.22;;
36385;SDS011;24125;47.482;8.770;2022-11-27T00:40:38;9.45;;;4.72;;
36385;SDS011;24125;47.482;8.770;2022-11-27T00:43:10;7.75;;;4.47;;
36385;SDS011;24125;47.482;8.770;2022-11-27T00:45:47;8.85;;;4.60;;
36385;SDS011;24125;47.482;8.770;2022-11-27T00:48:20;7.70;;;4.30;;
36385;SDS011;24125;47.482;8.770;2022-11-27T00:50:57;8.65;;;4.60;;
36385;SDS011;24125;47.482;8.770;2022-11-27T00:53:31;9.45;;;4.93;;
36385;SDS011;24125;47.482;8.770;2022-11-27T00:56:06;6.88;;;4.57;;
36385;SDS011;24125;47.482;8.770;2022-11-27T00:58:40;9.50;;;4.80;;
36385;SDS011;24125;47.482;8.770;2022-11-27T01:01:14;8.27;;;4.43;;
36385;SDS011;24125;47.482;8.770;2022-11-27T01:03:49;8.35;;;5.03;;
36385;SDS011;24125;47.482;8.770;2022-11-27T01:06:22;9.15;;;4.68;;
36385;SDS011;24125;47.482;8.770;2022-11-27T01:08:56;7.20;;;4.35;;
36385;SDS011;24125;47.482;8.770;2022-11-27T01:11:31;7.65;;;4.82;;
36385;SDS011;24125;47.482;8.770;2022-11-27T01:14:07;8.63;;;4.97;;
36385;SDS011;24125;47.482;8.770;2022-11-27T01:16:42;7.68;;;4.82;;
36385;SDS011;24125;47.482;8.770;2022-11-27T01:19:15;8.80;;;5.15;;
36385;SDS011;24125;47.482;8.770;2022-11-27T01:21:48;8.48;;;4.57;;
36385;SDS011;24125;47.482;8.770;2022-11-27T01:24:21;7.57;;;4.63;;
36385;SDS011;24125;47.482;8.770;2022-11-27T01:26:55;6.32;;;4.47;;
36385;SDS011;24125;47.482;8.770;2022-11-27T01:29:28;6.75;;;4.40;;
36385;SDS011;24125;47.482;8.770;2022-11-27T01:32:01;8.95;;;4.85;;
36385;SDS011;24125;47.482;8.770;2022-11-27T01:34:34;6.97;;;4.30;;
36385;SDS011;24125;47.482;8.770;2022-11-27T01:37:07;8.30;;;4.47;;
36385;SDS011;24125;47.482;8.770;2022-11-27T01:39:39;7.90;;;4.03;;
36385;SDS011;24125;47.482;8.770;2022-11-27T01:42:14;6.75;;;4.38;;
36385;SDS011;24125;47.482;8.770;2022-11-27T01:44:49;8.02;;;4.90;;
36385;SDS011;24125;47.482;8.770;2022-11-27T01:47:26;7.57;;;4.28;;
36385;SDS011;24125;47.482;8.770;2022-11-27T01:50:06;7.95;;;4.53;;
36385;SDS011;24125;47.482;8.770;2022-11-27T01:52:47;8.57;;;4.38;;
36385;SDS011;24125;47.482;8.770;2022-11-27T01:55:24;8.32;;;4.00;;
36385;SDS011;24125;47.482;8.770;2022-11-27T01:58:03;6.30;;;3.85;;
36385;SDS011;24125;47.482;8.770;2022-11-27T02:00:39;5.75;;;4.10;;
36385;SDS011;24125;47.482;8.770;2022-11-27T02:03:13;6.18;;;4.03;;
36385;SDS011;24125;47.482;8.770;2022-11-27T02:05:47;7.55;;;4.13;;
36385;SDS011;24125;47.482;8.770;2022-11-27T02:08:20;8.45;;;4.60;;
36385;SDS011;24125;47.482;8.770;2022-11-27T02:10:54;9.13;;;4.03;;
36385;SDS011;24125;47.482;8.770;2022-11-27T02:13:37;5.32;;;3.58;;
36385;SDS011;24125;47.482;8.770;2022-11-27T02:16:14;8.02;;;3.72;;
36385;SDS011;24125;47.482;8.770;2022-11-27T02:18:55;5.85;;;3.90;;
36385;SDS011;24125;47.482;8.770;2022-11-27T02:21:34;6.47;;;3.83;;
36385;SDS011;24125;47.482;8.770;2022-11-27T02:24:32;6.97;;;4.07;;
36385;SDS011;24125;47.482;8.770;2022-11-27T02:27:30;5.97;;;4.30;;
36385;SDS011;24125;47.482;8.770;2022-11-27T02:30:16;6.50;;;3.97;;
36385;SDS011;24125;47.482;8.770;2022-11-27T02:32:50;6.32;;;4.18;;
36385;SDS011;24125;47.482;8.770;2022-11-27T02:35:29;7.45;;;4.15;;
36385;SDS011;24125;47.482;8.770;2022-11-27T02:38:06;5.40;;;3.78;;
36385;SDS011;24125;47.482;8.770;2022-11-27T02:40:43;6.75;;;4.40;;
36385;SDS011;24125;47.482;8.770;2022-11-27T02:43:23;6.07;;;3.92;;
36385;SDS011;24125;47.482;8.770;2022-11-27T02:46:03;10.75;;;4.38;;
36385;SDS011;24125;47.482;8.770;2022-11-27T02:48:39;5.95;;;4.13;;
36385;SDS011;24125;47.482;8.770;2022-11-27T02:51:18;6.32;;;4.03;;
36385;SDS011;24125;47.482;8.770;2022-11-27T02:53:55;6.63;;;4.13;;
36385;SDS011;24125;47.482;8.770;2022-11-27T02:56:32;7.18;;;3.90;;
36385;SDS011;24125;47.482;8.770;2022-11-27T02:59:06;6.60;;;3.83;;
36385;SDS011;24125;47.482;8.770;2022-11-27T03:01:52;6.18;;;4.18;;
36385;SDS011;24125;47.482;8.770;2022-11-27T03:04:30;5.80;;;3.80;;
36385;SDS011;24125;47.482;8.770;2022-11-27T03:07:07;7.57;;;4.53;;
36385;SDS011;24125;47.482;8.770;2022-11-27T03:09:45;8.13;;;4.55;;
36385;SDS011;24125;47.482;8.770;2022-11-27T03:12:21;8.07;;;4.20;;
36385;SDS011;24125;47.482;8.770;2022-11-27T03:14:54;6.75;;;4.03;;
36385;SDS011;24125;47.482;8.770;2022-11-27T03:17:43;5.40;;;3.67;;
36385;SDS011;24125;47.482;8.770;2022-11-27T03:20:24;7.00;;;3.92;;
36385;SDS011;24125;47.482;8.770;2022-11-27T03:22:59;5.50;;;3.72;;
36385;SDS011;24125;47.482;8.770;2022-11-27T03:25:32;7.20;;;3.95;;
36385;SDS011;24125;47.482;8.770;2022-11-27T03:28:05;6.50;;;3.78;;
36385;SDS011;24125;47.482;8.770;2022-11-27T03:30:41;6.93;;;4.50;;
36385;SDS011;24125;47.482;8.770;2022-11-27T03:33:16;5.20;;;3.72;;
36385;SDS011;24125;47.482;8.770;2022-11-27T03:35:50;6.45;;;3.90;;
36385;SDS011;24125;47.482;8.770;2022-11-27T03:38:23;6.85;;;4.18;;
36385;SDS011;24125;47.482;8.770;2022-11-27T03:40:58;5.93;;;3.70;;
36385;SDS011;24125;47.482;8.770;2022-11-27T03:43:39;6.07;;;4.15;;
36385;SDS011;24125;47.482;8.770;2022-11-27T03:46:21;6.32;;;4.10;;
36385;SDS011;24125;47.482;8.770;2022-11-27T03:49:03;5.28;;;3.60;;
36385;SDS011;24125;47.482;8.770;2022-11-27T03:51:47;5.13;;;3.30;;
36385;SDS011;24125;47.482;8.770;2022-11-27T03:54:25;5.05;;;3.45;;
36385;SDS011;24125;47.482;8.770;2022-11-27T03:57:13;5.38;;;3.40;;
36385;SDS011;24125;47.482;8.770;2022-11-27T03:59:50;4.28;;;3.03;;
36385;SDS011;24125;47.482;8.770;2022-11-27T04:02:27;6.05;;;3.28;;
36385;SDS011;24125;47.482;8.770;2022-11-27T04:05:10;6.72;;;3.70;;
36385;SDS011;24125;47.482;8.770;2022-11-27T04:07:44;4.75;;;3.20;;
36385;SDS011;24125;47.482;8.770;2022-11-27T04:10:17;5.55;;;3.70;;
36385;SDS011;24125;47.482;8.770;2022-11-27T04:12:50;5.13;;;3.55;;
36385;SDS011;24125;47.482;8.770;2022-11-27T04:15:23;5.30;;;3.40;;
36385;SDS011;24125;47.482;8.770;2022-11-27T04:17:56;5.85;;;3.65;;
36385;SDS011;24125;47.482;8.770;2022-11-27T04:20:31;5.22;;;3.22;;
36385;SDS011;24125;47.482;8.770;2022-11-27T04:23:04;5.32;;;3.55;;
36385;SDS011;24125;47.482;8.770;2022-11-27T04:25:36;4.85;;;2.92;;
36385;SDS011;24125;47.482;8.770;2022-11-27T04:28:09;5.53;;;3.30;;
36385;SDS011;24125;47.482;8.770;2022-11-27T04:30:42;5.53;;;3.40;;
36385;SDS011;24125;47.482;8.770;2022-11-27T04:33:15;4.93;;;3.38;;
36385;SDS011;24125;47.482;8.770;2022-11-27T04:35:50;4.80;;;3.22;;
36385;SDS011;24125;47.482;8.770;2022-11-27T04:38:23;5.05;;;3.40;;
36385;SDS011;24125;47.482;8.770;2022-11-27T04:40:56;5.22;;;3.55;;
36385;SDS011;24125;47.482;8.770;2022-11-27T04:43:29;5.97;;;4.00;;
36385;SDS011;24125;47.482;8.770;2022-11-27T04:46:02;5.25;;;3.63;;
36385;SDS011;24125;47.482;8.770;2022-11-27T04:48:34;5.05;;;3.83;;
36385;SDS011;24125;47.482;8.770;2022-11-27T04:51:09;5.07;;;3.45;;
36385;SDS011;24125;47.482;8.770;2022-11-27T04:53:42;6.25;;;4.43;;
36385;SDS011;24125;47.482;8.770;2022-11-27T04:56:14;5.90;;;3.97;;
36385;SDS011;24125;47.482;8.770;2022-11-27T04:58:47;7.05;;;4.72;;
36385;SDS011;24125;47.482;8.770;2022-11-27T05:01:20;5.78;;;4.15;;
36385;SDS011;24125;47.482;8.770;2022-11-27T05:03:53;5.00;;;3.58;;
36385;SDS011;24125;47.482;8.770;2022-11-27T05:06:27;5.85;;;3.65;;
36385;SDS011;24125;47.482;8.770;2022-11-27T05:09:00;5.35;;;3.47;;
36385;SDS011;24125;47.482;8.770;2022-11-27T05:11:33;5.43;;;3.67;;
36385;SDS011;24125;47.482;8.770;2022-11-27T05:14:06;5.80;;;4.00;;
36385;SDS011;24125;47.482;8.770;2022-11-27T05:16:49;6.03;;;4.45;;
36385;SDS011;24125;47.482;8.770;2022-11-27T05:19:24;6.35;;;4.00;;
36385;SDS011;24125;47.482;8.770;2022-11-27T05:22:00;5.43;;;3.65;;
36385;SDS011;24125;47.482;8.770;2022-11-27T05:24:33;5.18;;;3.92;;
36385;SDS011;24125;47.482;8.770;2022-11-27T05:27:06;4.57;;;3.33;;
36385;SDS011;24125;47.482;8.770;2022-11-27T05:29:39;5.75;;;3.58;;
36385;SDS011;24125;47.482;8.770;2022-11-27T05:32:13;6.15;;;4.22;;
36385;SDS011;24125;47.482;8.770;2022-11-27T05:34:46;6.05;;;3.63;;
36385;SDS011;24125;47.482;8.770;2022-11-27T05:37:21;6.93;;;4.18;;
36385;SDS011;24125;47.482;8.770;2022-11-27T05:39:54;7.55;;;3.90;;
36385;SDS011;24125;47.482;8.770;2022-11-27T05:42:27;7.30;;;4.32;;
36385;SDS011;24125;47.482;8.770;2022-11-27T05:45:00;6.80;;;4.35;;
36385;SDS011;24125;47.482;8.770;2022-11-27T05:47:32;6.03;;;3.88;;
36385;SDS011;24125;47.482;8.770;2022-11-27T05:50:06;7.43;;;4.30;;
36385;SDS011;24125;47.482;8.770;2022-11-27T05:52:41;6.30;;;4.32;;
36385;SDS011;24125;47.482;8.770;2022-11-27T05:55:14;7.70;;;4.50;;
36385;SDS011;24125;47.482;8.770;2022-11-27T05:57:46;8.95;;;4.47;;
36385;SDS011;24125;47.482;8.770;2022-11-27T06:00:20;6.95;;;4.47;;
36385;SDS011;24125;47.482;8.770;2022-11-27T06:02:53;7.70;;;4.30;;
36385;SDS011;24125;47.482;8.770;2022-11-27T06:05:27;8.95;;;5.38;;
36385;SDS011;24125;47.482;8.770;2022-11-27T06:08:01;7.75;;;5.10;;
36385;SDS011;24125;47.482;8.770;2022-11-27T06:10:34;9.90;;;4.82;;
36385;SDS011;24125;47.482;8.770;2022-11-27T06:13:09;8.05;;;4.88;;
36385;SDS011;24125;47.482;8.770;2022-11-27T06:15:42;13.57;;;4.93;;
36385;SDS011;24125;47.482;8.770;2022-11-27T06:18:15;7.72;;;4.78;;
36385;SDS011;24125;47.482;8.770;2022-11-27T06:20:47;7.55;;;4.72;;
36385;SDS011;24125;47.482;8.770;2022-11-27T06:23:24;11.27;;;4.88;;
36385;SDS011;24125;47.482;8.770;2022-11-27T06:25:57;7.65;;;4.65;;
36385;SDS011;24125;47.482;8.770;2022-11-27T06:28:30;7.28;;;4.53;;
36385;SDS011;24125;47.482;8.770;2022-11-27T06:31:04;8.77;;;4.95;;
36385;SDS011;24125;47.482;8.770;2022-11-27T06:33:43;7.90;;;4.50;;
36385;SDS011;24125;47.482;8.770;2022-11-27T06:36:16;22.90;;;4.15;;
36385;SDS011;24125;47.482;8.770;2022-11-27T06:38:51;6.45;;;4.13;;
36385;SDS011;24125;47.482;8.770;2022-11-27T06:41:24;6.30;;;3.85;;
36385;SDS011;24125;47.482;8.770;2022-11-27T06:43:59;6.45;;;4.07;;
36385;SDS011;24125;47.482;8.770;2022-11-27T06:46:32;9.50;;;4.28;;
36385;SDS011;24125;47.482;8.770;2022-11-27T06:49:05;6.22;;;3.95;;
36385;SDS011;24125;47.482;8.770;2022-11-27T06:51:37;6.60;;;3.70;;
36385;SDS011;24125;47.482;8.770;2022-11-27T06:54:12;6.85;;;4.20;;
36385;SDS011;24125;47.482;8.770;2022-11-27T06:56:44;7.22;;;4.10;;
36385;SDS011;24125;47.482;8.770;2022-11-27T06:59:20;7.72;;;4.03;;
36385;SDS011;24125;47.482;8.770;2022-11-27T07:01:53;5.85;;;3.92;;
36385;SDS011;24125;47.482;8.770;2022-11-27T07:04:26;6.85;;;4.40;;
36385;SDS011;24125;47.482;8.770;2022-11-27T07:06:58;5.18;;;3.67;;
36385;SDS011;24125;47.482;8.770;2022-11-27T07:09:33;5.20;;;3.75;;
36385;SDS011;24125;47.482;8.770;2022-11-27T07:12:06;6.13;;;3.83;;
36385;SDS011;24125;47.482;8.770;2022-11-27T07:14:39;6.40;;;3.78;;
36385;SDS011;24125;47.482;8.770;2022-11-27T07:17:13;6.10;;;3.83;;
36385;SDS011;24125;47.482;8.770;2022-11-27T07:19:46;4.82;;;3.33;;
36385;SDS011;24125;47.482;8.770;2022-11-27T07:22:19;4.65;;;2.92;;
36385;SDS011;24125;47.482;8.770;2022-11-27T07:24:53;3.45;;;2.90;;
36385;SDS011;24125;47.482;8.770;2022-11-27T07:27:26;3.10;;;2.50;;
36385;SDS011;24125;47.482;8.770;2022-11-27T07:29:59;3.35;;;2.58;;
36385;SDS011;24125;47.482;8.770;2022-11-27T07:32:32;2.85;;;2.13;;
36385;SDS011;24125;47.482;8.770;2022-11-27T07:35:05;3.58;;;2.35;;
36385;SDS011;24125;47.482;8.770;2022-11-27T07:37:38;3.08;;;2.70;;
36385;SDS011;24125;47.482;8.770;2022-11-27T07:40:13;3.35;;;2.38;;
36385;SDS011;24125;47.482;8.770;2022-11-27T07:42:46;3.35;;;2.15;;
36385;SDS011;24125;47.482;8.770;2022-11-27T07:45:19;2.70;;;1.90;;
36385;SDS011;24125;47.482;8.770;2022-11-27T07:47:52;3.08;;;2.47;;
36385;SDS011;24125;47.482;8.770;2022-11-27T07:50:25;3.10;;;2.30;;
36385;SDS011;24125;47.482;8.770;2022-11-27T07:52:58;2.80;;;2.10;;
36385;SDS011;24125;47.482;8.770;2022-11-27T07:55:32;2.58;;;2.13;;
36385;SDS011;24125;47.482;8.770;2022-11-27T07:58:05;4.15;;;1.92;;
36385;SDS011;24125;47.482;8.770;2022-11-27T08:00:38;2.67;;;1.60;;
36385;SDS011;24125;47.482;8.770;2022-11-27T08:03:11;4.22;;;1.85;;
36385;SDS011;24125;47.482;8.770;2022-11-27T08:05:44;1.65;;;1.50;;
36385;SDS011;24125;47.482;8.770;2022-11-27T08:08:17;2.05;;;1.70;;
36385;SDS011;24125;47.482;8.770;2022-11-27T08:10:51;1.80;;;1.30;;
36385;SDS011;24125;47.482;8.770;2022-11-27T08:13:24;2.03;;;1.48;;
36385;SDS011;24125;47.482;8.770;2022-11-27T08:15:57;4.10;;;1.50;;
36385;SDS011;24125;47.482;8.770;2022-11-27T08:18:30;2.75;;;1.70;;
36385;SDS011;24125;47.482;8.770;2022-11-27T08:21:03;2.55;;;1.70;;
36385;SDS011;24125;47.482;8.770;2022-11-27T08:23:36;2.17;;;1.42;;
36385;SDS011;24125;47.482;8.770;2022-11-27T08:26:11;2.28;;;1.60;;
36385;SDS011;24125;47.482;8.770;2022-11-27T08:28:44;2.13;;;1.70;;
36385;SDS011;24125;47.482;8.770;2022-11-27T08:31:17;2.08;;;1.20;;
36385;SDS011;24125;47.482;8.770;2022-11-27T08:33:51;2.17;;;1.52;;
36385;SDS011;24125;47.482;8.770;2022-11-27T08:36:24;1.98;;;1.52;;
36385;SDS011;24125;47.482;8.770;2022-11-27T08:38:57;2.05;;;1.35;;
36385;SDS011;24125;47.482;8.770;2022-11-27T08:41:32;2.70;;;1.73;;
36385;SDS011;24125;47.482;8.770;2022-11-27T08:44:05;3.88;;;1.80;;
36385;SDS011;24125;47.482;8.770;2022-11-27T08:46:39;1.80;;;1.55;;
36385;SDS011;24125;47.482;8.770;2022-11-27T08:49:14;2.70;;;1.77;;
36385;SDS011;24125;47.482;8.770;2022-11-27T08:51:47;2.88;;;1.80;;
36385;SDS011;24125;47.482;8.770;2022-11-27T08:54:20;2.45;;;1.77;;
36385;SDS011;24125;47.482;8.770;2022-11-27T08:56:54;2.55;;;1.75;;
36385;SDS011;24125;47.482;8.770;2022-11-27T08:59:27;3.50;;;2.50;;
36385;SDS011;24125;47.482;8.770;2022-11-27T09:02:00;4.00;;;2.78;;
36385;SDS011;24125;47.482;8.770;2022-11-27T09:04:33;3.22;;;2.63;;
36385;SDS011;24125;47.482;8.770;2022-11-27T09:07:06;5.18;;;2.60;;
36385;SDS011;24125;47.482;8.770;2022-11-27T09:09:38;4.43;;;2.33;;
36385;SDS011;24125;47.482;8.770;2022-11-27T09:12:13;3.70;;;2.67;;
36385;SDS011;24125;47.482;8.770;2022-11-27T09:14:46;3.80;;;2.70;;
36385;SDS011;24125;47.482;8.770;2022-11-27T09:17:18;3.85;;;3.00;;
36385;SDS011;24125;47.482;8.770;2022-11-27T09:19:51;2.67;;;2.30;;
36385;SDS011;24125;47.482;8.770;2022-11-27T09:22:24;3.08;;;2.38;;
36385;SDS011;24125;47.482;8.770;2022-11-27T09:24:57;3.15;;;2.28;;
36385;SDS011;24125;47.482;8.770;2022-11-27T09:27:31;3.45;;;2.70;;
36385;SDS011;24125;47.482;8.770;2022-11-27T09:30:05;3.63;;;2.70;;
36385;SDS011;24125;47.482;8.770;2022-11-27T09:32:40;3.20;;;2.45;;
36385;SDS011;24125;47.482;8.770;2022-11-27T09:35:13;3.50;;;2.20;;
36385;SDS011;24125;47.482;8.770;2022-11-27T09:37:46;7.13;;;3.00;;
36385;SDS011;24125;47.482;8.770;2022-11-27T09:40:19;3.80;;;2.40;;
36385;SDS011;24125;47.482;8.770;2022-11-27T09:42:54;4.05;;;2.60;;
36385;SDS011;24125;47.482;8.770;2022-11-27T09:45:33;2.90;;;2.50;;
36385;SDS011;24125;47.482;8.770;2022-11-27T09:48:07;4.25;;;2.55;;
36385;SDS011;24125;47.482;8.770;2022-11-27T09:50:46;4.63;;;2.60;;
36385;SDS011;24125;47.482;8.770;2022-11-27T09:53:25;4.80;;;2.33;;
36385;SDS011;24125;47.482;8.770;2022-11-27T09:56:02;5.40;;;2.45;;
36385;SDS011;24125;47.482;8.770;2022-11-27T09:58:44;2.92;;;2.42;;
36385;SDS011;24125;47.482;8.770;2022-11-27T10:01:21;3.70;;;2.63;;
36385;SDS011;24125;47.482;8.770;2022-11-27T10:04:08;4.18;;;2.58;;
36385;SDS011;24125;47.482;8.770;2022-11-27T10:06:55;4.47;;;2.85;;
36385;SDS011;24125;47.482;8.770;2022-11-27T10:09:38;3.03;;;2.20;;
36385;SDS011;24125;47.482;8.770;2022-11-27T10:12:23;3.55;;;2.40;;
36385;SDS011;24125;47.482;8.770;2022-11-27T10:15:05;3.80;;;1.92;;
36385;SDS011;24125;47.482;8.770;2022-11-27T10:17:45;4.00;;;2.50;;
36385;SDS011;24125;47.482;8.770;2022-11-27T10:20:24;3.83;;;2.67;;
36385;SDS011;24125;47.482;8.770;2022-11-27T10:23:04;4.13;;;2.40;;
36385;SDS011;24125;47.482;8.770;2022-11-27T10:25:47;2.85;;;2.20;;
36385;SDS011;24125;47.482;8.770;2022-11-27T10:28:25;3.55;;;2.17;;
36385;SDS011;24125;47.482;8.770;2022-11-27T10:31:11;5.07;;;2.70;;
36385;SDS011;24125;47.482;8.770;2022-11-27T10:33:49;4.80;;;2.25;;
36385;SDS011;24125;47.482;8.770;2022-11-27T10:36:26;3.10;;;1.95;;
36385;SDS011;24125;47.482;8.770;2022-11-27T10:39:02;3.67;;;2.70;;
36385;SDS011;24125;47.482;8.770;2022-11-27T10:41:39;3.55;;;2.65;;
36385;SDS011;24125;47.482;8.770;2022-11-27T10:47:00;5.07;;;2.40;;
36385;SDS011;24125;47.482;8.770;2022-11-27T10:49:34;3.30;;;2.42;;
36385;SDS011;24125;47.482;8.770;2022-11-27T10:52:13;3.17;;;2.60;;
36385;SDS011;24125;47.482;8.770;2022-11-27T10:54:48;3.15;;;2.50;;
36385;SDS011;24125;47.482;8.770;2022-11-27T10:57:34;3.50;;;2.60;;
36385;SDS011;24125;47.482;8.770;2022-11-27T11:00:18;3.55;;;2.50;;
36385;SDS011;24125;47.482;8.770;2022-11-27T11:02:59;4.78;;;2.75;;
36385;SDS011;24125;47.482;8.770;2022-11-27T11:05:32;4.53;;;2.53;;
36385;SDS011;24125;47.482;8.770;2022-11-27T11:08:26;2.95;;;2.25;;
36385;SDS011;24125;47.482;8.770;2022-11-27T11:11:01;4.90;;;2.30;;
36385;SDS011;24125;47.482;8.770;2022-11-27T11:13:41;3.97;;;2.70;;
36385;SDS011;24125;47.482;8.770;2022-11-27T11:16:17;3.92;;;2.90;;
36385;SDS011;24125;47.482;8.770;2022-11-27T11:18:56;4.03;;;2.58;;
36385;SDS011;24125;47.482;8.770;2022-11-27T11:21:33;5.20;;;2.97;;
36385;SDS011;24125;47.482;8.770;2022-11-27T11:24:11;4.43;;;2.85;;
36385;SDS011;24125;47.482;8.770;2022-11-27T11:26:48;3.85;;;3.00;;
36385;SDS011;24125;47.482;8.770;2022-11-27T11:29:26;4.18;;;2.83;;
36385;SDS011;24125;47.482;8.770;2022-11-27T11:32:04;3.58;;;2.85;;
36385;SDS011;24125;47.482;8.770;2022-11-27T11:34:43;4.82;;;3.60;;
36385;SDS011;24125;47.482;8.770;2022-11-27T11:37:19;6.38;;;3.20;;
36385;SDS011;24125;47.482;8.770;2022-11-27T11:39:55;6.15;;;3.25;;
36385;SDS011;24125;47.482;8.770;2022-11-27T11:42:32;4.43;;;3.20;;
36385;SDS011;24125;47.482;8.770;2022-11-27T11:45:15;3.85;;;3.00;;
36385;SDS011;24125;47.482;8.770;2022-11-27T11:47:50;5.13;;;3.50;;
36385;SDS011;24125;47.482;8.770;2022-11-27T11:50:27;4.40;;;3.58;;
36385;SDS011;24125;47.482;8.770;2022-11-27T11:53:12;5.22;;;3.85;;
36385;SDS011;24125;47.482;8.770;2022-11-27T11:55:56;5.95;;;4.40;;
36385;SDS011;24125;47.482;8.770;2022-11-27T11:58:48;6.45;;;4.65;;
36385;SDS011;24125;47.482;8.770;2022-11-27T12:07:38;7.63;;;4.65;;
36385;SDS011;24125;47.482;8.770;2022-11-27T12:10:23;5.88;;;4.07;;
36385;SDS011;24125;47.482;8.770;2022-11-27T12:13:03;5.90;;;4.03;;
36385;SDS011;24125;47.482;8.770;2022-11-27T12:15:53;5.88;;;4.20;;
36385;SDS011;24125;47.482;8.770;2022-11-27T12:18:39;5.82;;;3.88;;
36385;SDS011;24125;47.482;8.770;2022-11-27T12:21:22;6.95;;;4.30;;
36385;SDS011;24125;47.482;8.770;2022-11-27T12:24:06;7.38;;;4.30;;
36385;SDS011;24125;47.482;8.770;2022-11-27T12:26:58;5.05;;;3.35;;
36385;SDS011;24125;47.482;8.770;2022-11-27T12:29:55;5.80;;;3.72;;
36385;SDS011;24125;47.482;8.770;2022-11-27T12:35:55;6.15;;;3.72;;
36385;SDS011;24125;47.482;8.770;2022-11-27T12:38:37;6.93;;;4.30;;
36385;SDS011;24125;47.482;8.770;2022-11-27T12:41:25;6.60;;;4.25;;
36385;SDS011;24125;47.482;8.770;2022-11-27T12:44:20;7.35;;;4.60;;
36385;SDS011;24125;47.482;8.770;2022-11-27T12:46:58;7.07;;;4.00;;
36385;SDS011;24125;47.482;8.770;2022-11-27T12:49:36;5.78;;;3.80;;
36385;SDS011;24125;47.482;8.770;2022-11-27T12:52:15;6.28;;;4.22;;
36385;SDS011;24125;47.482;8.770;2022-11-27T12:54:53;5.50;;;3.95;;
36385;SDS011;24125;47.482;8.770;2022-11-27T12:57:35;6.30;;;4.10;;
36385;SDS011;24125;47.482;8.770;2022-11-27T13:00:13;5.38;;;3.55;;
36385;SDS011;24125;47.482;8.770;2022-11-27T13:02:51;10.75;;;3.72;;
36385;SDS011;24125;47.482;8.770;2022-11-27T13:05:37;6.57;;;4.28;;
36385;SDS011;24125;47.482;8.770;2022-11-27T13:08:14;5.45;;;4.07;;
36385;SDS011;24125;47.482;8.770;2022-11-27T13:10:53;9.95;;;4.43;;
36385;SDS011;24125;47.482;8.770;2022-11-27T13:13:30;6.20;;;3.88;;
36385;SDS011;24125;47.482;8.770;2022-11-27T13:16:10;5.57;;;3.42;;
36385;SDS011;24125;47.482;8.770;2022-11-27T13:18:49;5.47;;;3.65;;
36385;SDS011;24125;47.482;8.770;2022-11-27T13:21:26;5.88;;;3.85;;
36385;SDS011;24125;47.482;8.770;2022-11-27T13:24:02;5.10;;;3.63;;
36385;SDS011;24125;47.482;8.770;2022-11-27T13:26:37;5.35;;;3.50;;
36385;SDS011;24125;47.482;8.770;2022-11-27T13:29:26;6.50;;;3.80;;
36385;SDS011;24125;47.482;8.770;2022-11-27T13:32:02;6.65;;;3.78;;
36385;SDS011;24125;47.482;8.770;2022-11-27T13:34:40;5.45;;;3.42;;
36385;SDS011;24125;47.482;8.770;2022-11-27T13:37:23;5.28;;;3.50;;
36385;SDS011;24125;47.482;8.770;2022-11-27T13:40:00;6.28;;;3.90;;
36385;SDS011;24125;47.482;8.770;2022-11-27T13:42:40;5.75;;;3.65;;
36385;SDS011;24125;47.482;8.770;2022-11-27T13:45:20;6.90;;;3.60;;
36385;SDS011;24125;47.482;8.770;2022-11-27T13:47:56;5.32;;;3.75;;
36385;SDS011;24125;47.482;8.770;2022-11-27T13:50:31;6.57;;;3.97;;
36385;SDS011;24125;47.482;8.770;2022-11-27T13:53:14;6.50;;;4.32;;
36385;SDS011;24125;47.482;8.770;2022-11-27T13:55:51;7.22;;;4.38;;
36385;SDS011;24125;47.482;8.770;2022-11-27T13:58:26;7.05;;;4.53;;
36385;SDS011;24125;47.482;8.770;2022-11-27T14:01:12;6.93;;;4.15;;
36385;SDS011;24125;47.482;8.770;2022-11-27T14:03:48;7.13;;;4.50;;
36385;SDS011;24125;47.482;8.770;2022-11-27T14:06:22;7.13;;;4.78;;
36385;SDS011;24125;47.482;8.770;2022-11-27T14:08:57;7.95;;;5.70;;
36385;SDS011;24125;47.482;8.770;2022-11-27T14:11:36;9.85;;;5.88;;
36385;SDS011;24125;47.482;8.770;2022-11-27T14:14:13;8.13;;;5.43;;
36385;SDS011;24125;47.482;8.770;2022-11-27T14:16:54;9.65;;;5.85;;
36385;SDS011;24125;47.482;8.770;2022-11-27T14:19:30;8.35;;;5.72;;
36385;SDS011;24125;47.482;8.770;2022-11-27T14:22:12;8.98;;;5.90;;
36385;SDS011;24125;47.482;8.770;2022-11-27T14:24:51;8.80;;;5.93;;
36385;SDS011;24125;47.482;8.770;2022-11-27T14:27:30;10.15;;;6.35;;
36385;SDS011;24125;47.482;8.770;2022-11-27T14:30:10;10.75;;;6.50;;
36385;SDS011;24125;47.482;8.770;2022-11-27T14:32:55;9.82;;;5.95;;
36385;SDS011;24125;47.482;8.770;2022-11-27T14:35:28;8.75;;;6.18;;
36385;SDS011;24125;47.482;8.770;2022-11-27T14:38:07;9.63;;;6.35;;
36385;SDS011;24125;47.482;8.770;2022-11-27T14:40:41;8.98;;;5.70;;
36385;SDS011;24125;47.482;8.770;2022-11-27T14:43:15;9.13;;;5.60;;
36385;SDS011;24125;47.482;8.770;2022-11-27T14:45:49;9.10;;;5.63;;
36385;SDS011;24125;47.482;8.770;2022-11-27T14:48:26;9.23;;;5.93;;
36385;SDS011;24125;47.482;8.770;2022-11-27T14:51:02;8.90;;;5.85;;
36385;SDS011;24125;47.482;8.770;2022-11-27T14:53:36;7.72;;;5.57;;
36385;SDS011;24125;47.482;8.770;2022-11-27T14:56:09;8.60;;;5.45;;
36385;SDS011;24125;47.482;8.770;2022-11-27T14:58:45;7.65;;;5.50;;
36385;SDS011;24125;47.482;8.770;2022-11-27T15:01:23;10.70;;;6.00;;
36385;SDS011;24125;47.482;8.770;2022-11-27T15:03:59;10.20;;;5.45;;
36385;SDS011;24125;47.482;8.770;2022-11-27T15:06:38;8.20;;;5.60;;
36385;SDS011;24125;47.482;8.770;2022-11-27T15:09:15;7.55;;;5.72;;
36385;SDS011;24125;47.482;8.770;2022-11-27T15:12:07;8.32;;;5.60;;
36385;SDS011;24125;47.482;8.770;2022-11-27T15:14:49;9.20;;;6.07;;
36385;SDS011;24125;47.482;8.770;2022-11-27T15:17:28;10.05;;;6.00;;
36385;SDS011;24125;47.482;8.770;2022-11-27T15:20:09;7.60;;;4.97;;
36385;SDS011;24125;47.482;8.770;2022-11-27T15:22:47;9.32;;;6.13;;
36385;SDS011;24125;47.482;8.770;2022-11-27T15:25:28;10.77;;;6.22;;
36385;SDS011;24125;47.482;8.770;2022-11-27T15:30:58;9.77;;;6.13;;
36385;SDS011;24125;47.482;8.770;2022-11-27T15:33:32;12.27;;;6.57;;
36385;SDS011;24125;47.482;8.770;2022-11-27T15:36:13;10.45;;;5.72;;
36385;SDS011;24125;47.482;8.770;2022-11-27T15:38:47;11.25;;;6.47;;
36385;SDS011;24125;47.482;8.770;2022-11-27T15:41:22;8.73;;;5.97;;
36385;SDS011;24125;47.482;8.770;2022-11-27T15:43:56;9.30;;;6.05;;
36385;SDS011;24125;47.482;8.770;2022-11-27T15:46:31;8.50;;;5.45;;
36385;SDS011;24125;47.482;8.770;2022-11-27T15:49:07;9.77;;;5.47;;
36385;SDS011;24125;47.482;8.770;2022-11-27T15:51:44;7.97;;;5.05;;
36385;SDS011;24125;47.482;8.770;2022-11-27T15:54:17;9.10;;;6.15;;
36385;SDS011;24125;47.482;8.770;2022-11-27T15:56:50;8.30;;;5.25;;
36385;SDS011;24125;47.482;8.770;2022-11-27T15:59:23;9.13;;;5.60;;